createdAt,value
2018-09-30T00:01:22.067Z,80.77
2018-09-30T00:03:50.554Z,80.72
2018-09-30T00:06:19.071Z,81.32
2018-09-30T00:08:47.562Z,81.97
2018-09-30T00:11:16.094Z,81.48
2018-09-30T00:13:44.728Z,81.50
2018-09-30T00:16:13.283Z,81.30
2018-09-30T00:18:48.577Z,81.87
2018-09-30T00:21:17.070Z,81.97
2018-09-30T00:23:50.777Z,82.05
2018-09-30T00:26:24.728Z,81.87
2018-09-30T00:28:53.221Z,81.34
2018-09-30T00:31:21.746Z,81.97
2018-09-30T00:33:55.601Z,81.94
2018-09-30T00:36:24.262Z,82.15
2018-09-30T00:38:53.058Z,81.62
2018-09-30T00:41:21.570Z,80.76
2018-09-30T00:43:50.086Z,81.15
2018-09-30T00:46:19.145Z,81.89
2018-09-30T00:48:47.660Z,82.65
2018-09-30T00:51:16.175Z,83.35
2018-09-30T00:53:44.656Z,83.30
2018-09-30T00:56:13.883Z,82.89
2018-09-30T00:58:43.378Z,82.09
2018-09-30T01:01:12.405Z,82.06
2018-09-30T01:03:40.886Z,82.07
2018-09-30T01:06:09.411Z,82.61
2018-09-30T01:08:38.218Z,83.23
2018-09-30T01:11:07.378Z,83.35
2018-09-30T01:13:35.861Z,83.30
2018-09-30T01:16:04.386Z,82.81
2018-09-30T01:18:32.917Z,82.77
2018-09-30T01:21:01.469Z,82.82
2018-09-30T01:23:29.959Z,82.29
2018-09-30T01:25:58.457Z,82.92
2018-09-30T01:28:27.006Z,83.17
2018-09-30T01:30:55.485Z,83.71
2018-09-30T01:33:24.029Z,83.90
2018-09-30T01:35:52.588Z,84.10
2018-09-30T01:38:21.082Z,84.62
2018-09-30T01:40:49.629Z,85.14
2018-09-30T01:43:18.134Z,86.14
2018-09-30T01:45:46.617Z,85.78
2018-09-30T01:48:15.182Z,86.02
2018-09-30T01:50:43.660Z,85.84
2018-09-30T01:53:12.279Z,84.69
2018-09-30T01:55:40.824Z,83.55
2018-09-30T01:58:09.342Z,83.44
2018-09-30T02:00:37.863Z,84.23
2018-09-30T02:03:06.565Z,84.45
2018-09-30T02:05:35.105Z,84.12
2018-09-30T02:08:03.661Z,84.40
2018-09-30T02:10:32.153Z,85.01
2018-09-30T02:13:00.698Z,85.37
2018-09-30T02:15:30.076Z,84.50
2018-09-30T02:17:58.612Z,84.26
2018-09-30T02:20:27.093Z,84.48
2018-09-30T02:22:55.672Z,84.69
2018-09-30T02:25:24.186Z,85.79
2018-09-30T02:27:52.810Z,85.86
2018-09-30T02:30:21.323Z,85.56
2018-09-30T02:32:49.812Z,84.56
2018-09-30T02:35:18.371Z,85.42
2018-09-30T02:37:46.917Z,84.73
2018-09-30T02:40:15.425Z,84.39
2018-09-30T02:42:43.962Z,83.90
2018-09-30T02:45:12.491Z,85.05
2018-09-30T02:47:40.998Z,85.28
2018-09-30T02:50:09.881Z,85.23
2018-09-30T02:52:38.379Z,84.61
2018-09-30T02:55:06.878Z,84.77
2018-09-30T02:57:35.406Z,83.61
2018-09-30T03:00:03.898Z,83.84
2018-09-30T03:02:32.429Z,83.62
2018-09-30T03:05:00.995Z,83.16
2018-09-30T03:07:34.793Z,84.34
2018-09-30T03:10:03.391Z,85.18
2018-09-30T03:12:31.890Z,84.96
2018-09-30T03:15:00.492Z,84.88
2018-09-30T03:17:28.994Z,84.52
2018-09-30T03:19:57.505Z,84.71
2018-09-30T07:38:11.543Z,85.66
2018-09-30T07:40:40.043Z,85.32
2018-09-30T07:43:08.513Z,84.19
2018-09-30T07:45:37.023Z,82.69
2018-09-30T07:48:05.619Z,81.55
2018-09-30T07:50:34.775Z,81.01
2018-09-30T07:53:03.239Z,80.56
2018-09-30T07:55:31.930Z,80.06
2018-09-30T07:58:00.527Z,79.35
2018-09-30T08:00:29.097Z,78.12
2018-09-30T08:02:57.678Z,76.73
2018-09-30T08:05:26.395Z,76.32
2018-09-30T08:07:54.859Z,74.98
2018-09-30T08:10:23.605Z,75.52
2018-09-30T08:12:52.154Z,75.82
2018-09-30T08:15:20.689Z,74.48
2018-09-30T08:17:49.411Z,73.97
2018-09-30T08:20:24.197Z,73.04
2018-09-30T08:22:52.737Z,72.60
2018-09-30T08:25:21.277Z,71.76
2018-09-30T08:27:49.805Z,72.60
2018-09-30T08:30:18.357Z,71.57
2018-09-30T08:32:46.930Z,70.93
2018-09-30T08:35:15.491Z,70.70
2018-09-30T08:37:49.374Z,70.38
2018-09-30T08:40:23.278Z,70.08
2018-09-30T08:42:51.826Z,69.74
2018-09-30T08:45:20.354Z,69.53
2018-09-30T08:47:48.936Z,69.27
2018-09-30T08:50:17.378Z,69.68
2018-09-30T08:52:45.965Z,69.28
2018-09-30T08:55:14.442Z,69.03
2018-09-30T08:57:43.027Z,68.07
2018-09-30T09:00:11.554Z,68.43
2018-09-30T09:02:40.038Z,68.22
2018-09-30T09:05:08.785Z,68.14
2018-09-30T09:07:37.304Z,67.08
2018-09-30T09:10:05.808Z,67.37
2018-09-30T09:12:34.410Z,67.47
2018-09-30T09:15:09.635Z,64.97
2018-09-30T09:17:38.150Z,64.59
2018-09-30T09:20:06.749Z,65.17
2018-09-30T09:22:35.619Z,65.32
2018-09-30T09:25:04.238Z,64.71
2018-09-30T09:27:32.803Z,64.12
2018-09-30T09:30:01.277Z,62.62
2018-09-30T09:32:33.427Z,62.30
2018-09-30T09:35:01.966Z,62.75
2018-09-30T09:37:30.449Z,61.32
2018-09-30T09:39:59.066Z,61.79
2018-09-30T09:42:27.545Z,60.47
2018-09-30T09:44:56.183Z,61.03
2018-09-30T09:47:24.670Z,60.40
2018-09-30T09:49:53.245Z,59.98
2018-09-30T09:52:21.804Z,59.59
2018-09-30T09:54:50.297Z,58.23
2018-09-30T09:57:19.113Z,58.38
2018-09-30T09:59:47.906Z,58.66
2018-09-30T10:02:16.952Z,58.90
2018-09-30T10:04:45.448Z,59.61
2018-09-30T10:07:13.939Z,59.50
2018-09-30T10:09:42.503Z,59.29
2018-09-30T10:12:11.139Z,58.83
2018-09-30T10:14:39.611Z,59.16
2018-09-30T10:17:08.423Z,59.44
2018-09-30T10:19:37.466Z,60.06
2018-09-30T10:22:05.946Z,59.17
2018-09-30T10:24:34.563Z,59.65
2018-09-30T10:27:03.077Z,59.15
2018-09-30T10:29:31.593Z,59.97
2018-09-30T10:32:00.295Z,59.73
2018-09-30T10:34:28.785Z,58.91
2018-09-30T10:37:04.285Z,59.46
2018-09-30T10:39:32.763Z,59.26
2018-09-30T10:42:01.259Z,59.09
2018-09-30T10:44:29.801Z,59.41
2018-09-30T10:46:58.287Z,58.90
2018-09-30T10:49:26.821Z,59.32
2018-09-30T10:51:55.285Z,58.10
2018-09-30T10:54:23.821Z,58.96
2018-09-30T10:56:52.377Z,59.18
2018-09-30T10:59:20.833Z,58.90
2018-09-30T11:01:49.329Z,59.16
2018-09-30T11:04:18.077Z,58.83
2018-09-30T11:06:47.320Z,59.14
2018-09-30T11:09:15.795Z,59.38
2018-09-30T11:11:44.350Z,59.01
2018-09-30T11:14:12.893Z,59.62
2018-09-30T11:16:41.445Z,58.57
2018-09-30T11:19:09.980Z,59.27
2018-09-30T11:21:38.473Z,59.46
2018-09-30T11:24:07.194Z,58.96
2018-09-30T11:26:36.389Z,58.58
2018-09-30T11:29:04.905Z,59.11
2018-09-30T11:31:33.466Z,58.25
2018-09-30T11:34:01.965Z,57.58
2018-09-30T11:36:30.458Z,58.35
2018-09-30T11:38:58.966Z,57.75
2018-09-30T11:41:27.513Z,59.00
2018-09-30T11:43:56.965Z,58.90
2018-09-30T11:46:25.473Z,59.35
2018-09-30T11:48:53.953Z,58.59
2018-09-30T11:51:22.441Z,58.25
2018-09-30T11:53:50.947Z,57.74
2018-09-30T11:56:19.409Z,57.50
2018-09-30T11:58:47.873Z,57.69
2018-09-30T12:01:16.412Z,57.48
2018-09-30T12:03:44.889Z,55.95
2018-09-30T12:06:13.397Z,54.91
2018-09-30T12:08:41.867Z,55.14
2018-09-30T12:11:10.403Z,54.83
2018-09-30T12:13:38.929Z,55.29
2018-09-30T12:16:07.767Z,53.67
2018-09-30T12:18:36.256Z,53.69
2018-09-30T12:22:08.094Z,54.50
2018-09-30T12:24:36.661Z,54.44
2018-09-30T12:27:05.209Z,54.67
2018-09-30T12:29:34.094Z,53.48
2018-09-30T12:32:02.594Z,54.22
2018-09-30T12:34:31.033Z,54.61
2018-09-30T12:36:59.550Z,54.34
2018-09-30T12:39:28.268Z,54.80
2018-09-30T12:41:56.706Z,54.60
2018-09-30T12:44:25.305Z,54.80
2018-09-30T12:46:53.829Z,54.40
2018-09-30T12:49:22.393Z,54.51
2018-09-30T12:51:50.884Z,54.81
2018-09-30T12:54:19.385Z,53.20
2018-09-30T12:56:47.927Z,51.97
2018-09-30T12:59:16.954Z,52.20
2018-09-30T13:01:45.432Z,51.51
2018-09-30T13:04:14.115Z,50.85
2018-09-30T13:06:42.640Z,50.69
2018-09-30T13:09:11.602Z,49.09
2018-09-30T13:11:40.177Z,50.77
2018-09-30T13:14:08.878Z,50.63
2018-09-30T13:16:37.422Z,50.60
2018-09-30T13:19:06.042Z,50.46
2018-09-30T13:21:34.559Z,50.68
2018-09-30T13:24:03.073Z,51.65
2018-09-30T13:26:31.569Z,51.62
2018-09-30T13:29:00.142Z,51.08
2018-09-30T13:31:28.646Z,50.83
2018-09-30T13:33:57.238Z,52.11
2018-09-30T13:36:25.806Z,52.82
2018-09-30T13:38:55.018Z,51.52
2018-09-30T13:41:23.590Z,52.07
2018-09-30T13:43:52.109Z,50.26
2018-09-30T13:46:20.665Z,51.98
2018-09-30T13:48:49.246Z,51.30
2018-09-30T13:51:17.925Z,52.26
2018-09-30T13:53:46.489Z,51.06
2018-09-30T13:56:15.025Z,52.03
2018-09-30T13:58:43.659Z,51.28
2018-09-30T14:01:12.221Z,51.89
2018-09-30T14:03:40.737Z,51.50
2018-09-30T14:06:09.320Z,50.73
2018-09-30T14:08:37.818Z,51.38
2018-09-30T14:11:06.474Z,51.36
2018-09-30T14:13:34.989Z,52.15
2018-09-30T14:16:03.562Z,50.96
2018-09-30T14:18:32.097Z,50.54
2018-09-30T14:21:00.582Z,51.23
2018-09-30T14:23:29.134Z,51.99
2018-09-30T14:25:57.666Z,52.77
2018-09-30T14:28:26.158Z,53.19
2018-09-30T14:30:54.942Z,53.67
2018-09-30T14:33:23.446Z,52.61
2018-09-30T14:35:51.902Z,53.74
2018-09-30T14:38:20.557Z,52.27
2018-09-30T14:40:49.058Z,51.92
2018-09-30T14:43:17.555Z,52.99
2018-09-30T14:45:46.077Z,52.78
2018-09-30T14:48:14.656Z,52.55
2018-09-30T14:50:43.148Z,53.37
2018-09-30T14:53:11.704Z,53.51
2018-09-30T14:55:40.187Z,53.51
2018-09-30T14:58:09.084Z,53.60
2018-09-30T15:00:37.830Z,53.19
2018-09-30T15:03:06.301Z,53.78
2018-09-30T15:05:34.830Z,55.05
2018-09-30T15:08:03.370Z,54.04
2018-09-30T15:10:31.830Z,54.94
2018-09-30T15:13:00.382Z,55.28
2018-09-30T15:15:28.945Z,56.21
2018-09-30T15:17:57.489Z,56.27
2018-09-30T15:20:26.005Z,56.69
2018-09-30T15:22:54.793Z,55.72
2018-09-30T15:25:23.295Z,54.91
2018-09-30T15:27:52.567Z,54.84
2018-09-30T15:30:21.129Z,53.92
2018-09-30T15:32:49.682Z,53.64
2018-09-30T15:35:18.246Z,55.05
2018-09-30T15:37:46.798Z,55.31
2018-09-30T15:40:15.345Z,55.32
2018-09-30T15:42:43.927Z,54.48
2018-09-30T15:45:12.634Z,54.41
2018-09-30T15:47:41.131Z,55.90
2018-09-30T15:50:09.658Z,56.26
2018-09-30T15:52:38.153Z,56.03
2018-09-30T15:55:06.886Z,55.58
2018-09-30T15:57:35.370Z,54.79
2018-09-30T16:00:04.045Z,55.17
2018-09-30T16:02:32.567Z,54.98
2018-09-30T16:05:01.710Z,55.76
2018-09-30T16:07:30.701Z,56.44
2018-09-30T16:09:59.177Z,56.13
2018-09-30T16:12:27.951Z,57.34
2018-09-30T16:14:56.478Z,57.08
2018-09-30T16:17:24.983Z,57.54
2018-09-30T16:19:53.576Z,57.86
2018-09-30T16:22:22.053Z,58.41
2018-09-30T16:24:50.577Z,59.98
2018-09-30T16:27:19.037Z,59.49
2018-09-30T16:29:47.586Z,60.15
2018-09-30T16:32:16.089Z,60.47
2018-09-30T16:34:44.575Z,60.20
2018-09-30T16:37:13.340Z,61.06
2018-09-30T16:39:41.847Z,60.54
2018-09-30T16:42:10.419Z,62.02
2018-09-30T16:44:39.045Z,61.28
2018-09-30T16:47:07.504Z,61.90
2018-09-30T16:49:36.039Z,62.44
2018-09-30T16:52:04.573Z,63.05
2018-09-30T16:54:33.050Z,64.25
2018-09-30T16:57:01.566Z,65.13
2018-09-30T16:59:30.037Z,65.84
2018-09-30T17:01:58.546Z,66.41
2018-09-30T17:04:27.049Z,66.08
2018-09-30T17:06:55.597Z,66.61
2018-09-30T17:09:24.137Z,67.26
2018-09-30T17:11:52.709Z,68.21
2018-09-30T17:14:21.228Z,69.04
2018-09-30T17:16:49.736Z,69.39
2018-09-30T17:19:18.222Z,70.06
2018-09-30T17:21:46.730Z,70.43
2018-09-30T17:24:15.382Z,71.77
2018-09-30T17:26:44.788Z,71.35
2018-09-30T17:29:14.464Z,71.49
2018-09-30T17:31:43.157Z,72.28
2018-09-30T17:34:11.697Z,72.84
2018-09-30T17:36:40.278Z,73.26
2018-09-30T17:39:10.031Z,73.48
2018-09-30T17:41:38.535Z,74.35
2018-09-30T17:44:07.013Z,73.87
2018-09-30T17:46:35.526Z,74.04
2018-09-30T17:49:04.174Z,75.10
2018-09-30T17:51:32.737Z,74.51
2018-09-30T17:54:01.250Z,74.64
2018-09-30T17:56:29.838Z,75.25
2018-09-30T17:58:58.365Z,74.95
2018-09-30T18:01:26.869Z,75.28
2018-09-30T18:03:55.434Z,75.41
2018-09-30T18:06:24.027Z,75.25
2018-09-30T18:08:52.578Z,74.83
2018-09-30T18:11:21.082Z,74.88
2018-09-30T18:13:50.906Z,74.83
2018-09-30T18:16:19.841Z,75.19
2018-09-30T18:18:48.447Z,74.85
2018-09-30T18:21:17.469Z,74.47
2018-09-30T18:23:47.344Z,75.27
2018-09-30T18:26:16.147Z,75.36
2018-09-30T18:28:44.730Z,75.90
2018-09-30T18:31:13.518Z,76.25
2018-09-30T18:33:42.513Z,76.60
2018-09-30T18:36:14.149Z,76.87
2018-09-30T18:38:42.794Z,77.82
2018-09-30T18:41:11.466Z,77.68
2018-09-30T18:43:39.989Z,78.61
2018-09-30T18:46:08.766Z,78.40
2018-09-30T18:48:37.619Z,77.51
2018-09-30T18:51:06.468Z,78.02
2018-09-30T18:53:35.238Z,78.10
2018-09-30T18:56:04.103Z,79.13
2018-09-30T18:58:32.528Z,78.42
2018-09-30T19:01:01.232Z,79.70
2018-09-30T19:03:29.934Z,79.27
2018-09-30T19:05:58.620Z,79.73
2018-09-30T19:08:27.240Z,79.46
2018-09-30T19:10:56.432Z,79.51
2018-09-30T19:13:24.984Z,79.15
2018-09-30T19:15:54.063Z,79.11
2018-09-30T19:18:22.806Z,79.04
2018-09-30T19:20:51.776Z,80.51
2018-09-30T19:23:20.451Z,81.33
2018-09-30T19:25:49.241Z,80.84
2018-09-30T19:28:17.969Z,80.25
2018-09-30T19:30:46.550Z,81.36
2018-09-30T19:33:15.202Z,80.62
2018-09-30T19:35:43.943Z,80.96
2018-09-30T19:38:12.782Z,80.47
2018-09-30T19:40:41.701Z,80.51
2018-09-30T19:43:10.318Z,80.13
2018-09-30T19:45:38.930Z,81.03
2018-09-30T19:48:07.887Z,81.11
2018-09-30T19:50:36.453Z,81.67
2018-09-30T19:53:05.426Z,81.24
2018-09-30T19:55:34.430Z,81.64
2018-09-30T19:58:03.100Z,81.46
2018-09-30T20:00:31.946Z,81.68
2018-09-30T20:03:00.746Z,81.60
2018-09-30T20:05:29.466Z,81.28
2018-09-30T20:07:58.690Z,81.33
2018-09-30T20:10:27.256Z,80.61
2018-09-30T20:12:56.040Z,80.29
2018-09-30T20:15:24.614Z,79.95
2018-09-30T20:17:53.482Z,79.59
2018-09-30T20:20:22.061Z,79.39
2018-09-30T20:22:51.229Z,79.40
2018-09-30T20:25:19.885Z,79.19
2018-09-30T20:27:48.411Z,79.19
2018-09-30T20:30:17.190Z,78.95
2018-09-30T20:32:45.653Z,78.99
2018-09-30T20:36:17.372Z,79.15
2018-09-30T20:38:45.887Z,79.06
2018-09-30T20:41:14.361Z,79.15
2018-09-30T20:43:42.875Z,78.93
2018-09-30T20:46:18.277Z,78.71
2018-09-30T20:48:47.117Z,78.30
2018-09-30T20:51:15.641Z,77.98
2018-09-30T20:53:44.091Z,78.27
2018-09-30T20:56:12.702Z,78.69
2018-09-30T20:58:41.250Z,78.92
2018-09-30T21:01:10.126Z,79.13
2018-09-30T21:03:38.675Z,79.32
2018-09-30T21:06:16.661Z,79.56
2018-09-30T21:08:46.063Z,79.79
2018-09-30T21:11:14.582Z,79.54
2018-09-30T21:13:43.413Z,80.50
2018-09-30T21:16:12.229Z,80.56
2018-09-30T21:18:40.858Z,80.19
2018-09-30T21:21:09.382Z,80.64
2018-09-30T21:23:37.857Z,79.70
2018-09-30T21:26:06.564Z,80.12
2018-09-30T21:28:36.011Z,80.45
2018-09-30T21:31:05.164Z,80.53
2018-09-30T21:33:33.680Z,80.59
2018-09-30T21:36:02.194Z,80.69
2018-09-30T21:38:30.729Z,80.92
2018-09-30T21:40:59.233Z,81.13
2018-09-30T21:43:27.865Z,80.91
2018-09-30T21:45:56.340Z,81.16
2018-09-30T21:48:24.865Z,81.15
2018-09-30T21:50:53.366Z,81.13
2018-09-30T21:53:21.849Z,81.38
2018-09-30T21:55:50.363Z,81.42
2018-09-30T21:58:18.837Z,81.76
2018-09-30T22:00:52.726Z,81.98
2018-09-30T22:03:21.270Z,82.19
2018-09-30T22:05:49.794Z,82.26
2018-09-30T22:08:18.413Z,82.91
2018-09-30T22:10:46.961Z,82.91
2018-09-30T22:13:15.451Z,82.58
2018-09-30T22:15:44.227Z,82.79
2018-09-30T22:18:12.750Z,82.78
2018-09-30T22:20:41.250Z,83.27
2018-09-30T22:23:09.805Z,83.94
2018-09-30T22:25:38.353Z,83.80
2018-09-30T22:28:07.108Z,83.54
2018-09-30T22:30:35.684Z,83.61
2018-09-30T22:33:04.661Z,83.30
2018-09-30T22:35:33.222Z,83.53
2018-09-30T22:38:01.707Z,83.31
2018-09-30T22:40:30.229Z,83.33
2018-09-30T22:42:58.839Z,82.73
2018-09-30T22:45:27.382Z,83.12
2018-09-30T22:47:55.877Z,82.97
2018-09-30T22:50:24.448Z,82.63
2018-09-30T22:52:52.926Z,82.70
2018-09-30T22:55:21.455Z,83.41
2018-09-30T22:57:50.374Z,82.48
2018-09-30T23:00:18.858Z,82.57
2018-09-30T23:02:47.363Z,82.98
2018-09-30T23:05:15.865Z,82.79
2018-09-30T23:07:44.345Z,82.50
2018-09-30T23:10:13.657Z,82.88
2018-09-30T23:12:42.418Z,83.33
2018-09-30T23:15:11.052Z,82.83
2018-09-30T23:17:39.956Z,83.54
2018-09-30T23:20:14.058Z,83.54
2018-09-30T23:22:42.573Z,82.88
2018-09-30T23:25:11.246Z,82.90
2018-09-30T23:27:39.757Z,83.51
2018-09-30T23:30:08.390Z,84.01
2018-09-30T23:32:37.189Z,84.00
2018-09-30T23:35:05.993Z,84.51
2018-09-30T23:37:34.468Z,84.60
2018-09-30T23:40:03.348Z,84.32
2018-09-30T23:43:35.120Z,84.39
2018-09-30T23:46:03.677Z,84.86
2018-09-30T23:48:32.169Z,84.61
2018-09-30T23:51:00.666Z,84.81
2018-09-30T23:53:29.179Z,85.99
2018-09-30T23:55:57.737Z,85.93
2018-09-30T23:58:26.227Z,86.33
